Sevilla Carrier — A8VF2 — position and weather

sailwx.info

Track history (hours):
 
Tides and Currents Weather Stations Pressure Air Temp Water Temp Dewpoint Dewpoint Depression Visibility Wind Speed Wind Dir Waves Ship Positions

Sevilla Carrier

Last reported at 2017-Dec-16 15:08 UTC. Time now 2017-Dec-17 04:21 UTC.
Position N 33°49' E 134°55'.

Length 134 m; draft 5 m.

Type: Cargo ship. MMSI: 636014597.

Date/timePositionNaut miles runAvg speedWind from/ knotsBaromVisibWave heightAir tempDewpointWater temp
2017-Dec-16 15:08N 33°49' E 134°55'519.9
2017-Dec-16 14:54N 33°54' E 134°56'819.5
2017-Dec-16 14:30N 34°02' E 134°57'1019.2
2017-Dec-16 14:01N 34°11' E 134°58'918.9
2017-Dec-16 13:30N 34°21' E 134°60'816.5
2017-Dec-16 13:01N 34°28' E 135°04'816.0
2017-Dec-16 12:30N 34°35' E 135°08'510.2
2017-Dec-16 12:00N 34°40' E 135°11'0 0.3
2017-Dec-16 11:27N 34°40' E 135°11'0 0.0
2017-Dec-16 11:00N 34°40' E 135°11'0 0.0
2017-Dec-16 10:30N 34°40' E 135°11'0 0.0
2017-Dec-16 09:58N 34°40' E 135°11'0 0.0
2017-Dec-16 09:28N 34°40' E 135°11'0 0.0
2017-Dec-16 08:59N 34°40' E 135°11'0 0.0
2017-Dec-16 08:29N 34°40' E 135°11'0 0.0
2017-Dec-16 07:59N 34°40' E 135°11'0 0.0
2017-Dec-16 07:30N 34°40' E 135°11'0 0.0
2017-Dec-16 07:00N 34°40' E 135°11'0 0.0
2017-Dec-16 06:30N 34°40' E 135°11'0 0.0
2017-Dec-16 05:58N 34°40' E 135°11'0 0.2
2017-Dec-16 05:28N 34°40' E 135°11'0 0.2
2017-Dec-16 04:58N 34°40' E 135°11'0 0.0
2017-Dec-16 04:29N 34°40' E 135°11'0 0.0
2017-Dec-16 03:59N 34°40' E 135°11'0 0.0
2017-Dec-16 03:29N 34°40' E 135°11'0 0.0
2017-Dec-16 03:00N 34°40' E 135°11'0 0.0
2017-Dec-16 02:30N 34°40' E 135°11'0 0.0
2017-Dec-16 02:00N 34°40' E 135°11'0 0.0
2017-Dec-16 01:28N 34°40' E 135°11'0 0.0
2017-Dec-16 00:58N 34°40' E 135°11'0 0.0
2017-Dec-16 00:28N 34°40' E 135°11'0 0.0
2017-Dec-15 23:59N 34°40' E 135°11'0 0.0
2017-Dec-15 23:29N 34°40' E 135°11'0 0.0
2017-Dec-15 22:59N 34°40' E 135°11'0 0.0
2017-Dec-15 22:30N 34°40' E 135°11'2 3.2
2017-Dec-15 22:00N 34°38' E 135°11'3 5.4
2017-Dec-15 21:30N 34°36' E 135°09'3 6.5
2017-Dec-15 21:00N 34°33' E 135°08'3 6.9
2017-Dec-15 20:30N 34°30' E 135°06'4 8.7
2017-Dec-15 20:00N 34°26' E 135°03'510.8
2017-Dec-15 19:31N 34°21' E 135°01'510.8
2017-Dec-15 19:01N 34°16' E 134°59'5 9.2
2017-Dec-15 18:31N 34°11' E 134°59'714.7
2017-Dec-15 18:00N 34°04' E 134°59'816.7
2017-Dec-15 17:31N 33°55' E 134°59'916.5
2017-Dec-15 16:58N 33°48' E 135°04'16116.3
2017-Dec-15 07:07N 34°16' E 138°15'218.2
2017-Dec-15 07:00N 34°17' E 138°17'917.4
2017-Dec-15 06:30N 34°20' E 138°27'917.0
2017-Dec-15 05:59N 34°24' E 138°37'917.2
2017-Dec-15 05:28N 34°27' E 138°47'817.6
2017-Dec-15 05:01N 34°31' E 138°55'917.9
2017-Dec-15 04:29N 34°37' E 139°03'1018.9
2017-Dec-15 03:56N 34°45' E 139°11'2517.3
2017-Dec-15 02:31N 35°01' E 139°35'1912.4
2017-Dec-15 01:00N 35°18' E 139°44'612.3
2017-Dec-15 00:30N 35°24' E 139°42'5 0.8
2017-Dec-14 18:29N 35°29' E 139°39'0 0.0
2017-Dec-14 17:59N 35°29' E 139°39'0 0.0
2017-Dec-14 17:29N 35°29' E 139°39'0 0.0
2017-Dec-14 17:00N 35°29' E 139°39'0 0.0
2017-Dec-14 16:30N 35°29' E 139°39'0 0.0
2017-Dec-14 16:00N 35°29' E 139°39'0 0.0
2017-Dec-14 14:58N 35°29' E 139°39'0 0.0
2017-Dec-14 14:28N 35°29' E 139°39'0 0.0
2017-Dec-14 13:59N 35°29' E 139°39'0 0.0
2017-Dec-14 13:29N 35°29' E 139°39'0 0.0
2017-Dec-14 12:59N 35°29' E 139°39'0 0.0
2017-Dec-14 12:30N 35°29' E 139°39'0 0.0
2017-Dec-14 12:00N 35°29' E 139°39'0 0.0
2017-Dec-14 11:30N 35°29' E 139°39'0 0.1
2017-Dec-14 11:01N 35°29' E 139°39'0 0.1
2017-Dec-14 10:28N 35°29' E 139°39'0 0.0
2017-Dec-14 09:58N 35°29' E 139°39'0 0.0
2017-Dec-14 09:28N 35°29' E 139°39'0 0.0
2017-Dec-14 08:59N 35°29' E 139°39'0 0.0
2017-Dec-14 08:29N 35°29' E 139°39'0 0.0
2017-Dec-14 08:01N 35°29' E 139°39'2 4.1
2017-Dec-14 07:30N 35°27' E 139°41'4 7.5
2017-Dec-14 07:00N 35°25' E 139°44'4 7.4
2017-Dec-14 06:30N 35°21' E 139°43'5 9.1
2017-Dec-14 06:00N 35°17' E 139°46'5 9.3
2017-Dec-14 05:30N 35°12' E 139°47'714.2
2017-Dec-14 05:00N 35°05' E 139°45'816.0
2017-Dec-14 04:30N 35°00' E 139°37'918.5
2017-Dec-14 04:00N 34°55' E 139°28'1018.7
2017-Dec-14 03:29N 34°50' E 139°18'1119.0
2017-Dec-14 02:54N 34°42' E 139°09'819.0
2017-Dec-14 02:28N 34°35' E 139°03'918.6
2017-Dec-14 02:00N 34°29' E 138°57'1019.0
2017-Dec-14 01:30N 34°24' E 138°47'918.8
2017-Dec-14 01:00N 34°18' E 138°37'918.3
2017-Dec-14 00:29N 34°13' E 138°28'  
Track history (hours):
 
Tides and Currents Weather Stations Pressure Air Temp Water Temp Dewpoint Dewpoint Depression Visibility Wind Speed Wind Dir Waves Ship Positions

Sevilla Carrier

Last reported at 2017-Dec-16 15:08 UTC. Time now 2017-Dec-17 04:21 UTC.
Position N 33°49' E 134°55'.

Length 134 m; draft 5 m.

Type: Cargo ship. MMSI: 636014597.

Date/timePositionNaut miles runAvg speedWind from/ knotsBaromVisibWave heightAir tempDewpointWater temp
2017-Dec-16 15:08N 33°49' E 134°55'519.9
2017-Dec-16 14:54N 33°54' E 134°56'819.5
2017-Dec-16 14:30N 34°02' E 134°57'1019.2
2017-Dec-16 14:01N 34°11' E 134°58'918.9
2017-Dec-16 13:30N 34°21' E 134°60'816.5
2017-Dec-16 13:01N 34°28' E 135°04'816.0
2017-Dec-16 12:30N 34°35' E 135°08'510.2
2017-Dec-16 12:00N 34°40' E 135°11'0 0.3
2017-Dec-16 11:27N 34°40' E 135°11'0 0.0
2017-Dec-16 11:00N 34°40' E 135°11'0 0.0
2017-Dec-16 10:30N 34°40' E 135°11'0 0.0
2017-Dec-16 09:58N 34°40' E 135°11'0 0.0
2017-Dec-16 09:28N 34°40' E 135°11'0 0.0
2017-Dec-16 08:59N 34°40' E 135°11'0 0.0
2017-Dec-16 08:29N 34°40' E 135°11'0 0.0
2017-Dec-16 07:59N 34°40' E 135°11'0 0.0
2017-Dec-16 07:30N 34°40' E 135°11'0 0.0
2017-Dec-16 07:00N 34°40' E 135°11'0 0.0
2017-Dec-16 06:30N 34°40' E 135°11'0 0.0
2017-Dec-16 05:58N 34°40' E 135°11'0 0.2
2017-Dec-16 05:28N 34°40' E 135°11'0 0.2
2017-Dec-16 04:58N 34°40' E 135°11'0 0.0
2017-Dec-16 04:29N 34°40' E 135°11'0 0.0
2017-Dec-16 03:59N 34°40' E 135°11'0 0.0
2017-Dec-16 03:29N 34°40' E 135°11'0 0.0
2017-Dec-16 03:00N 34°40' E 135°11'0 0.0
2017-Dec-16 02:30N 34°40' E 135°11'0 0.0
2017-Dec-16 02:00N 34°40' E 135°11'0 0.0
2017-Dec-16 01:28N 34°40' E 135°11'0 0.0
2017-Dec-16 00:58N 34°40' E 135°11'0 0.0
2017-Dec-16 00:28N 34°40' E 135°11'0 0.0
2017-Dec-15 23:59N 34°40' E 135°11'0 0.0
2017-Dec-15 23:29N 34°40' E 135°11'0 0.0
2017-Dec-15 22:59N 34°40' E 135°11'0 0.0
2017-Dec-15 22:30N 34°40' E 135°11'2 3.2
2017-Dec-15 22:00N 34°38' E 135°11'3 5.4
2017-Dec-15 21:30N 34°36' E 135°09'3 6.5
2017-Dec-15 21:00N 34°33' E 135°08'3 6.9
2017-Dec-15 20:30N 34°30' E 135°06'4 8.7
2017-Dec-15 20:00N 34°26' E 135°03'510.8
2017-Dec-15 19:31N 34°21' E 135°01'510.8
2017-Dec-15 19:01N 34°16' E 134°59'5 9.2
2017-Dec-15 18:31N 34°11' E 134°59'714.7
2017-Dec-15 18:00N 34°04' E 134°59'816.7
2017-Dec-15 17:31N 33°55' E 134°59'916.5
2017-Dec-15 16:58N 33°48' E 135°04'16116.3
2017-Dec-15 07:07N 34°16' E 138°15'218.2
2017-Dec-15 07:00N 34°17' E 138°17'917.4
2017-Dec-15 06:30N 34°20' E 138°27'917.0
2017-Dec-15 05:59N 34°24' E 138°37'917.2
2017-Dec-15 05:28N 34°27' E 138°47'817.6
2017-Dec-15 05:01N 34°31' E 138°55'917.9
2017-Dec-15 04:29N 34°37' E 139°03'1018.9
2017-Dec-15 03:56N 34°45' E 139°11'2517.3
2017-Dec-15 02:31N 35°01' E 139°35'1912.4
2017-Dec-15 01:00N 35°18' E 139°44'612.3
2017-Dec-15 00:30N 35°24' E 139°42'5 0.8
2017-Dec-14 18:29N 35°29' E 139°39'0 0.0
2017-Dec-14 17:59N 35°29' E 139°39'0 0.0
2017-Dec-14 17:29N 35°29' E 139°39'0 0.0
2017-Dec-14 17:00N 35°29' E 139°39'0 0.0
2017-Dec-14 16:30N 35°29' E 139°39'0 0.0
2017-Dec-14 16:00N 35°29' E 139°39'0 0.0
2017-Dec-14 14:58N 35°29' E 139°39'0 0.0
2017-Dec-14 14:28N 35°29' E 139°39'0 0.0
2017-Dec-14 13:59N 35°29' E 139°39'0 0.0
2017-Dec-14 13:29N 35°29' E 139°39'0 0.0
2017-Dec-14 12:59N 35°29' E 139°39'0 0.0
2017-Dec-14 12:30N 35°29' E 139°39'0 0.0
2017-Dec-14 12:00N 35°29' E 139°39'0 0.0
2017-Dec-14 11:30N 35°29' E 139°39'0 0.1
2017-Dec-14 11:01N 35°29' E 139°39'0 0.1
2017-Dec-14 10:28N 35°29' E 139°39'0 0.0
2017-Dec-14 09:58N 35°29' E 139°39'0 0.0
2017-Dec-14 09:28N 35°29' E 139°39'0 0.0
2017-Dec-14 08:59N 35°29' E 139°39'0 0.0
2017-Dec-14 08:29N 35°29' E 139°39'0 0.0
2017-Dec-14 08:01N 35°29' E 139°39'2 4.1
2017-Dec-14 07:30N 35°27' E 139°41'4 7.5
2017-Dec-14 07:00N 35°25' E 139°44'4 7.4
2017-Dec-14 06:30N 35°21' E 139°43'5 9.1
2017-Dec-14 06:00N 35°17' E 139°46'5 9.3
2017-Dec-14 05:30N 35°12' E 139°47'714.2
2017-Dec-14 05:00N 35°05' E 139°45'816.0
2017-Dec-14 04:30N 35°00' E 139°37'918.5
2017-Dec-14 04:00N 34°55' E 139°28'1018.7
2017-Dec-14 03:29N 34°50' E 139°18'1119.0
2017-Dec-14 02:54N 34°42' E 139°09'819.0
2017-Dec-14 02:28N 34°35' E 139°03'918.6
2017-Dec-14 02:00N 34°29' E 138°57'1019.0
2017-Dec-14 01:30N 34°24' E 138°47'918.8
2017-Dec-14 01:00N 34°18' E 138°37'918.3
2017-Dec-14 00:29N 34°13' E 138°28'  

Dump ship's entire track history